sensor_id;sensor_type;location;lat;lon;timestamp;temperature;humidity
14210;DHT22;7188;56.070;12.698;2023-02-13T00:00:16;6.80;99.90
14210;DHT22;7188;56.070;12.698;2023-02-13T00:02:43;6.80;99.90
14210;DHT22;7188;56.070;12.698;2023-02-13T00:05:09;6.80;99.90
14210;DHT22;7188;56.070;12.698;2023-02-13T00:07:34;6.80;99.90
14210;DHT22;7188;56.070;12.698;2023-02-13T00:10:00;6.80;99.90
14210;DHT22;7188;56.070;12.698;2023-02-13T00:12:25;6.80;99.90
14210;DHT22;7188;56.070;12.698;2023-02-13T00:14:51;6.80;99.90
14210;DHT22;7188;56.070;12.698;2023-02-13T00:17:17;6.70;1.00
14210;DHT22;7188;56.070;12.698;2023-02-13T00:19:42;6.70;1.00
14210;DHT22;7188;56.070;12.698;2023-02-13T00:22:08;6.70;1.00
14210;DHT22;7188;56.070;12.698;2023-02-13T00:24:34;6.70;99.90
14210;DHT22;7188;56.070;12.698;2023-02-13T00:27:00;6.70;99.90
14210;DHT22;7188;56.070;12.698;2023-02-13T00:29:25;6.70;99.90
14210;DHT22;7188;56.070;12.698;2023-02-13T00:31:51;6.70;99.90
14210;DHT22;7188;56.070;12.698;2023-02-13T00:34:16;6.60;1.00
14210;DHT22;7188;56.070;12.698;2023-02-13T00:36:42;6.60;74.50
14210;DHT22;7188;56.070;12.698;2023-02-13T00:39:11;6.60;1.00
14210;DHT22;7188;56.070;12.698;2023-02-13T00:41:37;6.50;1.00
14210;DHT22;7188;56.070;12.698;2023-02-13T00:44:03;6.50;1.00
14210;DHT22;7188;56.070;12.698;2023-02-13T00:46:28;6.40;45.50
14210;DHT22;7188;56.070;12.698;2023-02-13T00:48:54;6.40;59.30
14210;DHT22;7188;56.070;12.698;2023-02-13T00:51:19;6.30;99.90
14210;DHT22;7188;56.070;12.698;2023-02-13T00:53:45;6.40;99.90
14210;DHT22;7188;56.070;12.698;2023-02-13T00:56:11;6.30;99.90
14210;DHT22;7188;56.070;12.698;2023-02-13T00:58:37;6.30;99.90
14210;DHT22;7188;56.070;12.698;2023-02-13T01:01:03;6.20;99.90
14210;DHT22;7188;56.070;12.698;2023-02-13T01:03:29;6.20;99.90
14210;DHT22;7188;56.070;12.698;2023-02-13T01:05:55;6.10;99.90
14210;DHT22;7188;56.070;12.698;2023-02-13T01:08:22;6.10;99.90
14210;DHT22;7188;56.070;12.698;2023-02-13T01:10:49;6.00;99.90
14210;DHT22;7188;56.070;12.698;2023-02-13T01:13:16;6.00;99.90
14210;DHT22;7188;56.070;12.698;2023-02-13T01:15:44;6.00;99.90
14210;DHT22;7188;56.070;12.698;2023-02-13T01:18:12;5.90;1.00
14210;DHT22;7188;56.070;12.698;2023-02-13T01:20:39;5.90;1.00
14210;DHT22;7188;56.070;12.698;2023-02-13T01:23:05;5.90;1.00
14210;DHT22;7188;56.070;12.698;2023-02-13T01:25:30;5.90;1.00
14210;DHT22;7188;56.070;12.698;2023-02-13T01:27:56;5.90;1.00
14210;DHT22;7188;56.070;12.698;2023-02-13T01:30:22;6.00;1.00
14210;DHT22;7188;56.070;12.698;2023-02-13T01:32:47;6.00;1.00
14210;DHT22;7188;56.070;12.698;2023-02-13T01:35:14;6.00;1.00
14210;DHT22;7188;56.070;12.698;2023-02-13T01:37:41;6.00;1.00
14210;DHT22;7188;56.070;12.698;2023-02-13T01:40:09;6.00;1.00
14210;DHT22;7188;56.070;12.698;2023-02-13T01:42:35;6.00;99.90
14210;DHT22;7188;56.070;12.698;2023-02-13T01:45:25;6.10;99.90
14210;DHT22;7188;56.070;12.698;2023-02-13T01:48:00;6.10;99.90
14210;DHT22;7188;56.070;12.698;2023-02-13T01:50:34;6.10;99.90
14210;DHT22;7188;56.070;12.698;2023-02-13T01:53:09;6.10;59.30
14210;DHT22;7188;56.070;12.698;2023-02-13T01:55:41;6.10;1.00
14210;DHT22;7188;56.070;12.698;2023-02-13T01:58:10;6.20;1.00
14210;DHT22;7188;56.070;12.698;2023-02-13T02:00:38;6.20;1.00
14210;DHT22;7188;56.070;12.698;2023-02-13T02:05:53;6.20;99.90
14210;DHT22;7188;56.070;12.698;2023-02-13T02:08:21;6.20;99.90
14210;DHT22;7188;56.070;12.698;2023-02-13T02:10:47;6.20;99.90
14210;DHT22;7188;56.070;12.698;2023-02-13T02:13:14;6.20;4.00
14210;DHT22;7188;56.070;12.698;2023-02-13T02:15:41;6.20;1.00
14210;DHT22;7188;56.070;12.698;2023-02-13T02:18:22;6.20;1.00
14210;DHT22;7188;56.070;12.698;2023-02-13T02:32:08;6.10;1.00
14210;DHT22;7188;56.070;12.698;2023-02-13T02:37:27;6.10;99.90
14210;DHT22;7188;56.070;12.698;2023-02-13T02:46:15;6.10;99.90
14210;DHT22;7188;56.070;12.698;2023-02-13T02:48:54;6.10;74.90
14210;DHT22;7188;56.070;12.698;2023-02-13T02:54:59;6.10;99.90
14210;DHT22;7188;56.070;12.698;2023-02-13T02:57:39;6.00;99.90
14210;DHT22;7188;56.070;12.698;2023-02-13T03:00:25;6.00;1.00
14210;DHT22;7188;56.070;12.698;2023-02-13T03:03:21;5.90;1.00
14210;DHT22;7188;56.070;12.698;2023-02-13T03:06:36;5.90;1.00
14210;DHT22;7188;56.070;12.698;2023-02-13T03:09:22;5.90;1.00
14210;DHT22;7188;56.070;12.698;2023-02-13T03:12:08;5.90;1.00
14210;DHT22;7188;56.070;12.698;2023-02-13T03:14:54;5.80;1.00
14210;DHT22;7188;56.070;12.698;2023-02-13T03:17:20;5.80;1.00
14210;DHT22;7188;56.070;12.698;2023-02-13T03:23:34;5.90;1.00
14210;DHT22;7188;56.070;12.698;2023-02-13T03:28:56;5.90;99.90
14210;DHT22;7188;56.070;12.698;2023-02-13T03:34:20;6.00;99.90
14210;DHT22;7188;56.070;12.698;2023-02-13T03:37:06;6.00;99.50
14210;DHT22;7188;56.070;12.698;2023-02-13T03:39:57;6.00;99.90
14210;DHT22;7188;56.070;12.698;2023-02-13T03:42:44;6.00;1.00
14210;DHT22;7188;56.070;12.698;2023-02-13T03:45:27;6.00;1.00
14210;DHT22;7188;56.070;12.698;2023-02-13T03:48:14;6.10;1.00
14210;DHT22;7188;56.070;12.698;2023-02-13T03:51:12;6.10;1.00
14210;DHT22;7188;56.070;12.698;2023-02-13T03:53:41;6.10;1.00
14210;DHT22;7188;56.070;12.698;2023-02-13T03:56:10;6.00;1.00
14210;DHT22;7188;56.070;12.698;2023-02-13T03:58:56;6.10;99.90
14210;DHT22;7188;56.070;12.698;2023-02-13T04:01:47;6.10;99.90
14210;DHT22;7188;56.070;12.698;2023-02-13T04:04:33;6.00;99.90
14210;DHT22;7188;56.070;12.698;2023-02-13T04:07:04;6.00;99.90
14210;DHT22;7188;56.070;12.698;2023-02-13T04:09:33;6.00;99.90
14210;DHT22;7188;56.070;12.698;2023-02-13T04:12:16;6.00;99.90
14210;DHT22;7188;56.070;12.698;2023-02-13T04:14:49;6.00;99.90
14210;DHT22;7188;56.070;12.698;2023-02-13T04:20:17;6.00;78.90
14210;DHT22;7188;56.070;12.698;2023-02-13T04:22:44;6.10;94.70
14210;DHT22;7188;56.070;12.698;2023-02-13T04:25:12;6.00;99.90
14210;DHT22;7188;56.070;12.698;2023-02-13T04:27:38;6.10;1.00
14210;DHT22;7188;56.070;12.698;2023-02-13T04:30:05;6.10;1.00
14210;DHT22;7188;56.070;12.698;2023-02-13T04:32:31;6.00;1.00
14210;DHT22;7188;56.070;12.698;2023-02-13T04:34:56;6.00;1.00
14210;DHT22;7188;56.070;12.698;2023-02-13T04:37:22;6.10;1.00
14210;DHT22;7188;56.070;12.698;2023-02-13T04:39:48;6.00;1.00
14210;DHT22;7188;56.070;12.698;2023-02-13T04:42:14;6.10;1.00
14210;DHT22;7188;56.070;12.698;2023-02-13T04:44:40;6.10;1.00
14210;DHT22;7188;56.070;12.698;2023-02-13T04:47:05;6.10;1.00
14210;DHT22;7188;56.070;12.698;2023-02-13T04:49:31;6.00;1.00
14210;DHT22;7188;56.070;12.698;2023-02-13T04:51:56;6.00;1.00
14210;DHT22;7188;56.070;12.698;2023-02-13T04:54:22;6.00;1.00
14210;DHT22;7188;56.070;12.698;2023-02-13T04:56:48;6.00;1.00
14210;DHT22;7188;56.070;12.698;2023-02-13T04:59:13;6.00;1.00
14210;DHT22;7188;56.070;12.698;2023-02-13T05:01:39;6.00;1.00
14210;DHT22;7188;56.070;12.698;2023-02-13T05:04:05;6.00;1.00
14210;DHT22;7188;56.070;12.698;2023-02-13T05:06:30;6.00;1.00
14210;DHT22;7188;56.070;12.698;2023-02-13T05:08:56;6.00;1.00
14210;DHT22;7188;56.070;12.698;2023-02-13T05:11:21;6.00;1.00
14210;DHT22;7188;56.070;12.698;2023-02-13T05:13:47;6.00;99.90
14210;DHT22;7188;56.070;12.698;2023-02-13T05:16:13;6.00;99.90
14210;DHT22;7188;56.070;12.698;2023-02-13T05:18:38;6.00;99.90
14210;DHT22;7188;56.070;12.698;2023-02-13T05:21:04;6.00;99.90
14210;DHT22;7188;56.070;12.698;2023-02-13T05:23:48;6.00;99.90
14210;DHT22;7188;56.070;12.698;2023-02-13T05:26:14;6.10;99.90
14210;DHT22;7188;56.070;12.698;2023-02-13T05:28:39;6.00;99.90
14210;DHT22;7188;56.070;12.698;2023-02-13T05:31:23;6.10;99.90
14210;DHT22;7188;56.070;12.698;2023-02-13T05:33:49;6.10;99.90
14210;DHT22;7188;56.070;12.698;2023-02-13T05:36:15;6.10;99.90
14210;DHT22;7188;56.070;12.698;2023-02-13T05:38:40;6.00;99.90
14210;DHT22;7188;56.070;12.698;2023-02-13T05:41:06;6.10;99.90
14210;DHT22;7188;56.070;12.698;2023-02-13T05:43:31;6.10;99.90
14210;DHT22;7188;56.070;12.698;2023-02-13T05:46:06;6.00;99.90
14210;DHT22;7188;56.070;12.698;2023-02-13T05:48:33;6.00;99.90
14210;DHT22;7188;56.070;12.698;2023-02-13T05:50:58;6.00;99.90
14210;DHT22;7188;56.070;12.698;2023-02-13T05:53:24;6.00;99.90
14210;DHT22;7188;56.070;12.698;2023-02-13T05:55:50;6.00;99.90
14210;DHT22;7188;56.070;12.698;2023-02-13T05:58:17;6.00;99.90
14210;DHT22;7188;56.070;12.698;2023-02-13T06:00:43;6.00;99.90
14210;DHT22;7188;56.070;12.698;2023-02-13T06:03:09;6.00;99.90
14210;DHT22;7188;56.070;12.698;2023-02-13T06:05:34;6.00;99.90
14210;DHT22;7188;56.070;12.698;2023-02-13T06:08:00;6.00;99.90
14210;DHT22;7188;56.070;12.698;2023-02-13T06:10:26;5.90;99.90
14210;DHT22;7188;56.070;12.698;2023-02-13T06:12:51;5.90;99.90
14210;DHT22;7188;56.070;12.698;2023-02-13T06:15:17;5.90;99.90
14210;DHT22;7188;56.070;12.698;2023-02-13T06:17:42;5.80;99.90
14210;DHT22;7188;56.070;12.698;2023-02-13T06:20:08;5.80;99.90
14210;DHT22;7188;56.070;12.698;2023-02-13T06:22:34;5.80;99.90
14210;DHT22;7188;56.070;12.698;2023-02-13T06:25:00;5.80;1.00
14210;DHT22;7188;56.070;12.698;2023-02-13T06:27:25;5.80;1.00
14210;DHT22;7188;56.070;12.698;2023-02-13T06:29:51;5.80;1.00
14210;DHT22;7188;56.070;12.698;2023-02-13T06:32:16;5.70;1.00
14210;DHT22;7188;56.070;12.698;2023-02-13T06:34:42;5.70;1.00
14210;DHT22;7188;56.070;12.698;2023-02-13T06:37:08;5.70;1.00
14210;DHT22;7188;56.070;12.698;2023-02-13T06:39:33;5.70;1.00
14210;DHT22;7188;56.070;12.698;2023-02-13T06:42:00;5.70;1.00
14210;DHT22;7188;56.070;12.698;2023-02-13T06:44:26;5.70;1.00
14210;DHT22;7188;56.070;12.698;2023-02-13T06:46:51;5.60;1.00
14210;DHT22;7188;56.070;12.698;2023-02-13T06:49:17;5.60;1.00
14210;DHT22;7188;56.070;12.698;2023-02-13T06:51:42;5.60;1.00
14210;DHT22;7188;56.070;12.698;2023-02-13T06:54:08;5.60;1.00
14210;DHT22;7188;56.070;12.698;2023-02-13T06:56:34;5.60;1.00
14210;DHT22;7188;56.070;12.698;2023-02-13T06:58:59;5.60;1.00
14210;DHT22;7188;56.070;12.698;2023-02-13T07:01:25;5.60;1.00
14210;DHT22;7188;56.070;12.698;2023-02-13T07:03:51;5.60;1.00
14210;DHT22;7188;56.070;12.698;2023-02-13T07:06:20;5.60;1.00
14210;DHT22;7188;56.070;12.698;2023-02-13T07:08:46;5.60;1.00
14210;DHT22;7188;56.070;12.698;2023-02-13T07:11:22;5.60;1.00
14210;DHT22;7188;56.070;12.698;2023-02-13T07:13:48;5.60;1.00
14210;DHT22;7188;56.070;12.698;2023-02-13T07:16:14;5.60;1.00
14210;DHT22;7188;56.070;12.698;2023-02-13T07:18:40;5.60;1.00
14210;DHT22;7188;56.070;12.698;2023-02-13T07:21:06;5.70;1.00
14210;DHT22;7188;56.070;12.698;2023-02-13T07:23:32;5.70;1.00
14210;DHT22;7188;56.070;12.698;2023-02-13T07:25:58;5.70;1.00
14210;DHT22;7188;56.070;12.698;2023-02-13T07:28:25;5.70;1.00
14210;DHT22;7188;56.070;12.698;2023-02-13T07:30:51;5.70;1.00
14210;DHT22;7188;56.070;12.698;2023-02-13T07:33:16;5.70;1.00
14210;DHT22;7188;56.070;12.698;2023-02-13T07:35:50;5.80;1.00
14210;DHT22;7188;56.070;12.698;2023-02-13T07:38:17;5.80;1.00
14210;DHT22;7188;56.070;12.698;2023-02-13T07:40:43;5.80;1.00
14210;DHT22;7188;56.070;12.698;2023-02-13T07:43:09;5.80;1.00
14210;DHT22;7188;56.070;12.698;2023-02-13T07:45:35;5.80;1.00
14210;DHT22;7188;56.070;12.698;2023-02-13T07:48:00;5.90;1.00
14210;DHT22;7188;56.070;12.698;2023-02-13T07:50:27;5.90;1.00
14210;DHT22;7188;56.070;12.698;2023-02-13T07:52:57;6.00;1.00
14210;DHT22;7188;56.070;12.698;2023-02-13T07:55:23;6.00;1.00
14210;DHT22;7188;56.070;12.698;2023-02-13T07:57:49;6.00;1.00
14210;DHT22;7188;56.070;12.698;2023-02-13T08:00:16;6.00;1.00
14210;DHT22;7188;56.070;12.698;2023-02-13T08:02:42;6.10;99.90
14210;DHT22;7188;56.070;12.698;2023-02-13T08:05:07;6.10;99.90
14210;DHT22;7188;56.070;12.698;2023-02-13T08:07:33;6.10;99.90
14210;DHT22;7188;56.070;12.698;2023-02-13T08:09:59;6.20;99.90
14210;DHT22;7188;56.070;12.698;2023-02-13T08:12:43;6.20;99.90
14210;DHT22;7188;56.070;12.698;2023-02-13T08:15:11;6.30;99.90
14210;DHT22;7188;56.070;12.698;2023-02-13T08:17:37;6.30;99.90
14210;DHT22;7188;56.070;12.698;2023-02-13T08:20:04;6.30;99.90
14210;DHT22;7188;56.070;12.698;2023-02-13T08:22:32;6.30;99.90
14210;DHT22;7188;56.070;12.698;2023-02-13T08:24:57;6.40;99.90
14210;DHT22;7188;56.070;12.698;2023-02-13T08:27:23;6.40;99.90
14210;DHT22;7188;56.070;12.698;2023-02-13T08:29:49;6.40;99.90
14210;DHT22;7188;56.070;12.698;2023-02-13T08:32:18;6.50;99.90
14210;DHT22;7188;56.070;12.698;2023-02-13T08:34:44;6.50;99.90
14210;DHT22;7188;56.070;12.698;2023-02-13T08:37:09;6.50;99.90
14210;DHT22;7188;56.070;12.698;2023-02-13T08:39:35;6.60;99.90
14210;DHT22;7188;56.070;12.698;2023-02-13T08:42:01;6.60;99.90
14210;DHT22;7188;56.070;12.698;2023-02-13T08:44:26;6.70;99.90
14210;DHT22;7188;56.070;12.698;2023-02-13T08:46:52;6.70;83.90
14210;DHT22;7188;56.070;12.698;2023-02-13T08:49:17;6.70;96.60
14210;DHT22;7188;56.070;12.698;2023-02-13T08:51:43;6.80;35.70
14210;DHT22;7188;56.070;12.698;2023-02-13T08:54:09;6.80;1.00
14210;DHT22;7188;56.070;12.698;2023-02-13T08:56:34;6.80;1.00
14210;DHT22;7188;56.070;12.698;2023-02-13T08:59:00;6.80;1.00
14210;DHT22;7188;56.070;12.698;2023-02-13T09:01:26;6.80;22.60
14210;DHT22;7188;56.070;12.698;2023-02-13T09:03:51;6.90;99.90
14210;DHT22;7188;56.070;12.698;2023-02-13T09:06:17;7.00;29.70
14210;DHT22;7188;56.070;12.698;2023-02-13T09:08:43;6.90;13.20
14210;DHT22;7188;56.070;12.698;2023-02-13T09:11:09;6.90;1.00
14210;DHT22;7188;56.070;12.698;2023-02-13T09:13:35;6.90;1.00
14210;DHT22;7188;56.070;12.698;2023-02-13T09:16:05;6.90;1.00
14210;DHT22;7188;56.070;12.698;2023-02-13T09:18:32;7.00;1.00
14210;DHT22;7188;56.070;12.698;2023-02-13T09:21:06;7.00;1.00
14210;DHT22;7188;56.070;12.698;2023-02-13T09:23:33;7.00;1.00
14210;DHT22;7188;56.070;12.698;2023-02-13T09:26:00;7.00;1.00
14210;DHT22;7188;56.070;12.698;2023-02-13T09:28:28;7.10;1.00
14210;DHT22;7188;56.070;12.698;2023-02-13T09:30:53;7.00;1.00
14210;DHT22;7188;56.070;12.698;2023-02-13T09:33:19;7.10;1.00
14210;DHT22;7188;56.070;12.698;2023-02-13T09:35:45;7.10;1.00
14210;DHT22;7188;56.070;12.698;2023-02-13T09:38:10;7.10;1.00
14210;DHT22;7188;56.070;12.698;2023-02-13T09:40:46;7.20;1.00
14210;DHT22;7188;56.070;12.698;2023-02-13T09:43:17;7.20;1.00
14210;DHT22;7188;56.070;12.698;2023-02-13T09:45:50;7.20;1.00
14210;DHT22;7188;56.070;12.698;2023-02-13T09:48:26;7.10;1.00
14210;DHT22;7188;56.070;12.698;2023-02-13T09:50:53;7.00;59.30
14210;DHT22;7188;56.070;12.698;2023-02-13T09:53:23;7.00;99.90
14210;DHT22;7188;56.070;12.698;2023-02-13T09:58:42;7.10;26.50
14210;DHT22;7188;56.070;12.698;2023-02-13T10:03:56;7.20;1.00
14210;DHT22;7188;56.070;12.698;2023-02-13T10:06:43;7.20;1.00
14210;DHT22;7188;56.070;12.698;2023-02-13T10:15:07;7.20;1.00
14210;DHT22;7188;56.070;12.698;2023-02-13T10:17:44;7.20;1.00
14210;DHT22;7188;56.070;12.698;2023-02-13T10:20:36;7.30;1.00
14210;DHT22;7188;56.070;12.698;2023-02-13T10:26:19;7.30;1.00
14210;DHT22;7188;56.070;12.698;2023-02-13T10:29:02;7.30;1.00
14210;DHT22;7188;56.070;12.698;2023-02-13T10:31:48;7.30;1.00
14210;DHT22;7188;56.070;12.698;2023-02-13T10:34:18;7.30;1.00
14210;DHT22;7188;56.070;12.698;2023-02-13T10:36:46;7.30;1.00
14210;DHT22;7188;56.070;12.698;2023-02-13T10:39:23;7.30;1.00
14210;DHT22;7188;56.070;12.698;2023-02-13T10:58:52;7.30;1.00
14210;DHT22;7188;56.070;12.698;2023-02-13T11:06:40;7.40;1.00
14210;DHT22;7188;56.070;12.698;2023-02-13T11:09:07;7.40;1.00
14210;DHT22;7188;56.070;12.698;2023-02-13T11:11:36;7.30;1.00
14210;DHT22;7188;56.070;12.698;2023-02-13T11:14:43;7.40;1.00
14210;DHT22;7188;56.070;12.698;2023-02-13T11:17:04;7.40;1.00
14210;DHT22;7188;56.070;12.698;2023-02-13T11:19:45;7.40;1.00
14210;DHT22;7188;56.070;12.698;2023-02-13T11:22:31;7.50;1.00
14210;DHT22;7188;56.070;12.698;2023-02-13T11:25:05;7.50;1.00
14210;DHT22;7188;56.070;12.698;2023-02-13T11:27:34;7.50;1.00
14210;DHT22;7188;56.070;12.698;2023-02-13T11:30:49;7.60;99.90
14210;DHT22;7188;56.070;12.698;2023-02-13T11:32:59;7.60;99.90
14210;DHT22;7188;56.070;12.698;2023-02-13T11:35:33;7.60;99.90
14210;DHT22;7188;56.070;12.698;2023-02-13T11:40:42;7.60;99.90
14210;DHT22;7188;56.070;12.698;2023-02-13T11:43:23;7.70;99.90
14210;DHT22;7188;56.070;12.698;2023-02-13T11:46:16;7.70;99.90
14210;DHT22;7188;56.070;12.698;2023-02-13T11:48:42;7.70;99.90
14210;DHT22;7188;56.070;12.698;2023-02-13T11:51:08;7.80;99.90
14210;DHT22;7188;56.070;12.698;2023-02-13T11:53:38;7.80;99.90
14210;DHT22;7188;56.070;12.698;2023-02-13T11:56:12;7.80;99.90
14210;DHT22;7188;56.070;12.698;2023-02-13T11:58:38;7.80;99.90
14210;DHT22;7188;56.070;12.698;2023-02-13T12:01:22;7.80;99.90
14210;DHT22;7188;56.070;12.698;2023-02-13T12:04:01;7.90;99.90
14210;DHT22;7188;56.070;12.698;2023-02-13T12:06:27;7.90;99.90
14210;DHT22;7188;56.070;12.698;2023-02-13T12:08:53;7.90;99.90
14210;DHT22;7188;56.070;12.698;2023-02-13T12:14:38;7.90;99.90
14210;DHT22;7188;56.070;12.698;2023-02-13T12:17:14;7.90;99.90
14210;DHT22;7188;56.070;12.698;2023-02-13T12:19:45;7.90;99.90
14210;DHT22;7188;56.070;12.698;2023-02-13T12:27:45;8.00;99.90
14210;DHT22;7188;56.070;12.698;2023-02-13T12:32:54;8.00;99.90
14210;DHT22;7188;56.070;12.698;2023-02-13T12:41:31;8.00;99.90
14210;DHT22;7188;56.070;12.698;2023-02-13T12:46:04;8.00;99.90
14210;DHT22;7188;56.070;12.698;2023-02-13T13:05:07;8.00;99.90
14210;DHT22;7188;56.070;12.698;2023-02-13T13:08:05;8.00;99.90
14210;DHT22;7188;56.070;12.698;2023-02-13T13:11:19;8.00;99.90
14210;DHT22;7188;56.070;12.698;2023-02-13T13:19:26;8.00;99.90
14210;DHT22;7188;56.070;12.698;2023-02-13T13:22:14;8.10;99.90
14210;DHT22;7188;56.070;12.698;2023-02-13T13:27:36;8.10;99.90
14210;DHT22;7188;56.070;12.698;2023-02-13T13:30:21;8.10;99.90
14210;DHT22;7188;56.070;12.698;2023-02-13T13:32:53;8.10;99.90
14210;DHT22;7188;56.070;12.698;2023-02-13T13:35:21;8.10;99.90
14210;DHT22;7188;56.070;12.698;2023-02-13T13:38:12;8.10;99.90
14210;DHT22;7188;56.070;12.698;2023-02-13T13:43:25;8.10;99.90
14210;DHT22;7188;56.070;12.698;2023-02-13T13:46:10;8.10;99.90
14210;DHT22;7188;56.070;12.698;2023-02-13T13:51:16;7.90;1.00
14210;DHT22;7188;56.070;12.698;2023-02-13T13:59:18;7.90;1.00
14210;DHT22;7188;56.070;12.698;2023-02-13T14:01:44;7.90;1.00
14210;DHT22;7188;56.070;12.698;2023-02-13T14:04:39;7.90;1.00
14210;DHT22;7188;56.070;12.698;2023-02-13T14:07:20;7.80;1.00
14210;DHT22;7188;56.070;12.698;2023-02-13T14:09:47;7.80;1.00
14210;DHT22;7188;56.070;12.698;2023-02-13T14:14:57;7.80;1.00
14210;DHT22;7188;56.070;12.698;2023-02-13T14:20:35;7.80;1.00
14210;DHT22;7188;56.070;12.698;2023-02-13T14:31:34;7.60;1.00
14210;DHT22;7188;56.070;12.698;2023-02-13T14:36:44;7.60;1.00
14210;DHT22;7188;56.070;12.698;2023-02-13T14:42:28;7.50;1.00
14210;DHT22;7188;56.070;12.698;2023-02-13T14:44:57;7.40;1.00
14210;DHT22;7188;56.070;12.698;2023-02-13T14:47:42;7.40;20.70
14210;DHT22;7188;56.070;12.698;2023-02-13T14:50:21;7.30;77.10
14210;DHT22;7188;56.070;12.698;2023-02-13T14:52:48;7.20;90.20
14210;DHT22;7188;56.070;12.698;2023-02-13T14:55:34;7.20;90.60
14210;DHT22;7188;56.070;12.698;2023-02-13T14:58:19;7.20;99.90
14210;DHT22;7188;56.070;12.698;2023-02-13T15:00:59;7.10;99.90
14210;DHT22;7188;56.070;12.698;2023-02-13T15:06:27;7.10;99.90
14210;DHT22;7188;56.070;12.698;2023-02-13T15:08:55;7.10;99.90
14210;DHT22;7188;56.070;12.698;2023-02-13T15:11:38;7.10;99.90
14210;DHT22;7188;56.070;12.698;2023-02-13T15:14:18;7.00;99.90
14210;DHT22;7188;56.070;12.698;2023-02-13T15:17:29;6.90;99.90
14210;DHT22;7188;56.070;12.698;2023-02-13T15:19:37;6.90;99.90
14210;DHT22;7188;56.070;12.698;2023-02-13T15:22:04;6.90;99.90
14210;DHT22;7188;56.070;12.698;2023-02-13T15:24:44;6.90;99.90
14210;DHT22;7188;56.070;12.698;2023-02-13T15:27:18;6.80;99.90
14210;DHT22;7188;56.070;12.698;2023-02-13T15:30:00;6.70;1.00
14210;DHT22;7188;56.070;12.698;2023-02-13T15:32:32;6.60;1.00
14210;DHT22;7188;56.070;12.698;2023-02-13T15:34:59;6.60;1.00
14210;DHT22;7188;56.070;12.698;2023-02-13T15:37:29;6.50;1.00
14210;DHT22;7188;56.070;12.698;2023-02-13T15:40:10;6.50;1.00
14210;DHT22;7188;56.070;12.698;2023-02-13T15:42:39;6.40;78.70
14210;DHT22;7188;56.070;12.698;2023-02-13T15:45:05;6.30;99.90
14210;DHT22;7188;56.070;12.698;2023-02-13T15:47:31;6.20;99.90
14210;DHT22;7188;56.070;12.698;2023-02-13T15:49:58;6.20;99.90
14210;DHT22;7188;56.070;12.698;2023-02-13T15:52:36;6.20;1.00
14210;DHT22;7188;56.070;12.698;2023-02-13T15:55:03;6.10;1.00
14210;DHT22;7188;56.070;12.698;2023-02-13T15:57:29;6.10;1.00
14210;DHT22;7188;56.070;12.698;2023-02-13T16:00:00;6.00;1.00
14210;DHT22;7188;56.070;12.698;2023-02-13T16:02:41;6.00;1.00
14210;DHT22;7188;56.070;12.698;2023-02-13T16:05:10;5.90;99.90
14210;DHT22;7188;56.070;12.698;2023-02-13T16:07:55;5.90;99.90
14210;DHT22;7188;56.070;12.698;2023-02-13T16:12:55;5.80;1.00
14210;DHT22;7188;56.070;12.698;2023-02-13T16:15:21;5.80;1.00
14210;DHT22;7188;56.070;12.698;2023-02-13T16:17:50;5.70;99.90
14210;DHT22;7188;56.070;12.698;2023-02-13T16:20:19;5.70;1.00
14210;DHT22;7188;56.070;12.698;2023-02-13T16:23:03;5.70;1.00
14210;DHT22;7188;56.070;12.698;2023-02-13T16:25:37;5.60;1.00
14210;DHT22;7188;56.070;12.698;2023-02-13T16:28:20;5.60;1.00
14210;DHT22;7188;56.070;12.698;2023-02-13T16:30:59;5.60;99.90
14210;DHT22;7188;56.070;12.698;2023-02-13T16:33:29;5.60;99.90
14210;DHT22;7188;56.070;12.698;2023-02-13T16:38:41;5.50;99.90
14210;DHT22;7188;56.070;12.698;2023-02-13T16:51:56;5.40;99.90
14210;DHT22;7188;56.070;12.698;2023-02-13T17:02:25;5.40;1.00
14210;DHT22;7188;56.070;12.698;2023-02-13T17:10:25;5.40;1.00
14210;DHT22;7188;56.070;12.698;2023-02-13T17:12:57;5.40;1.00
14210;DHT22;7188;56.070;12.698;2023-02-13T17:15:29;5.40;1.00
14210;DHT22;7188;56.070;12.698;2023-02-13T17:17:55;5.30;1.00
14210;DHT22;7188;56.070;12.698;2023-02-13T17:20:24;5.30;1.00
14210;DHT22;7188;56.070;12.698;2023-02-13T17:22:58;5.30;1.00
14210;DHT22;7188;56.070;12.698;2023-02-13T17:25:27;5.30;1.00
14210;DHT22;7188;56.070;12.698;2023-02-13T17:27:56;5.30;1.00
14210;DHT22;7188;56.070;12.698;2023-02-13T17:30:24;5.20;1.00
14210;DHT22;7188;56.070;12.698;2023-02-13T17:33:37;5.20;71.40
14210;DHT22;7188;56.070;12.698;2023-02-13T17:35:43;5.20;40.50
14210;DHT22;7188;56.070;12.698;2023-02-13T17:38:09;5.20;58.10
14210;DHT22;7188;56.070;12.698;2023-02-13T17:40:35;5.20;99.90
14210;DHT22;7188;56.070;12.698;2023-02-13T17:43:01;5.20;99.90
14210;DHT22;7188;56.070;12.698;2023-02-13T17:45:29;5.10;99.90
14210;DHT22;7188;56.070;12.698;2023-02-13T17:47:55;5.10;99.90
14210;DHT22;7188;56.070;12.698;2023-02-13T17:50:28;5.10;99.90
14210;DHT22;7188;56.070;12.698;2023-02-13T17:52:54;5.20;99.90
14210;DHT22;7188;56.070;12.698;2023-02-13T17:55:27;5.20;99.90
14210;DHT22;7188;56.070;12.698;2023-02-13T17:57:54;5.20;98.60
14210;DHT22;7188;56.070;12.698;2023-02-13T18:00:28;5.20;48.20
14210;DHT22;7188;56.070;12.698;2023-02-13T18:02:54;5.20;99.90
14210;DHT22;7188;56.070;12.698;2023-02-13T18:05:21;5.20;1.00
14210;DHT22;7188;56.070;12.698;2023-02-13T18:07:47;5.20;7.60
14210;DHT22;7188;56.070;12.698;2023-02-13T18:10:16;5.10;68.30
14210;DHT22;7188;56.070;12.698;2023-02-13T18:12:43;5.10;99.90
14210;DHT22;7188;56.070;12.698;2023-02-13T18:15:10;5.10;99.90
14210;DHT22;7188;56.070;12.698;2023-02-13T18:17:36;5.10;99.90
14210;DHT22;7188;56.070;12.698;2023-02-13T18:20:03;5.00;99.90
14210;DHT22;7188;56.070;12.698;2023-02-13T18:22:29;5.00;99.90
14210;DHT22;7188;56.070;12.698;2023-02-13T18:24:56;5.00;1.00
14210;DHT22;7188;56.070;12.698;2023-02-13T18:27:22;5.10;1.00
14210;DHT22;7188;56.070;12.698;2023-02-13T18:29:49;5.10;1.00
14210;DHT22;7188;56.070;12.698;2023-02-13T18:32:15;5.00;1.00
14210;DHT22;7188;56.070;12.698;2023-02-13T18:34:40;5.00;1.00
14210;DHT22;7188;56.070;12.698;2023-02-13T18:37:12;5.00;1.00
14210;DHT22;7188;56.070;12.698;2023-02-13T18:39:38;5.00;1.00
14210;DHT22;7188;56.070;12.698;2023-02-13T18:42:04;5.00;1.00
14210;DHT22;7188;56.070;12.698;2023-02-13T18:44:30;5.00;1.00
14210;DHT22;7188;56.070;12.698;2023-02-13T18:46:56;5.00;1.00
14210;DHT22;7188;56.070;12.698;2023-02-13T18:49:22;5.00;99.90
14210;DHT22;7188;56.070;12.698;2023-02-13T18:51:48;5.00;99.90
14210;DHT22;7188;56.070;12.698;2023-02-13T18:54:14;5.00;1.00
14210;DHT22;7188;56.070;12.698;2023-02-13T18:56:40;5.00;99.90
14210;DHT22;7188;56.070;12.698;2023-02-13T18:59:06;5.00;99.90
14210;DHT22;7188;56.070;12.698;2023-02-13T19:01:32;5.00;99.90
14210;DHT22;7188;56.070;12.698;2023-02-13T19:04:00;5.00;99.90
14210;DHT22;7188;56.070;12.698;2023-02-13T19:06:27;5.00;99.90
14210;DHT22;7188;56.070;12.698;2023-02-13T19:08:54;5.00;99.90
14210;DHT22;7188;56.070;12.698;2023-02-13T19:11:20;5.00;99.90
14210;DHT22;7188;56.070;12.698;2023-02-13T19:13:55;5.00;27.00
14210;DHT22;7188;56.070;12.698;2023-02-13T19:16:22;5.00;99.90
14210;DHT22;7188;56.070;12.698;2023-02-13T19:18:52;5.00;99.90
14210;DHT22;7188;56.070;12.698;2023-02-13T19:21:20;5.00;99.90